Time;durP1;ratioP1;P1;durP2;ratioP2;P2;SDS_P1;SDS_P2;PMS_P1;PMS_P2;Temp;Humidity;BMP_temperature;BMP_pressure;BME280_temperature;BME280_humidity;BME280_pressure;Samples;Min_cycle;Max_cycle;Signal;HPM_P1;HPM_P2
2024/04/04 00:00:16;;;;;;;4.07;1.40;;;9.20;99.90;;;;;;6186962;23;20755;-75
2024/04/04 00:02:42;;;;;;;3.13;1.60;;;9.20;99.90;;;;;;6188085;23;20142;-73
2024/04/04 00:05:09;;;;;;;5.73;1.40;;;9.20;99.90;;;;;;6186262;23;20197;-75
2024/04/04 00:07:34;;;;;;;2.80;1.43;;;9.20;99.90;;;;;;6187293;23;20221;-75
2024/04/04 00:10:01;;;;;;;4.90;1.30;;;9.20;99.90;;;;;;6187714;23;20350;-75
2024/04/04 00:12:27;;;;;;;3.57;1.00;;;9.20;99.90;;;;;;6185837;23;20512;-74
2024/04/04 00:14:52;;;;;;;2.63;0.83;;;9.30;99.90;;;;;;6186767;23;20366;-73
2024/04/04 00:17:18;;;;;;;2.53;0.90;;;9.30;99.90;;;;;;6160714;23;20467;-74
2024/04/04 00:19:45;;;;;;;2.20;1.10;;;9.30;99.90;;;;;;6186822;23;20142;-75
2024/04/04 00:22:11;;;;;;;2.23;1.00;;;9.30;99.90;;;;;;6161070;23;20377;-74
2024/04/04 00:24:37;;;;;;;3.60;1.00;;;9.30;99.90;;;;;;6186530;23;20735;-74
2024/04/04 00:27:03;;;;;;;2.07;0.93;;;9.30;99.90;;;;;;6186959;23;20382;-73
2024/04/04 00:29:30;;;;;;;4.70;1.37;;;9.30;99.90;;;;;;6187124;23;20138;-75
2024/04/04 00:31:56;;;;;;;2.70;1.17;;;9.40;99.90;;;;;;6187029;23;20351;-74
2024/04/04 00:34:21;;;;;;;2.97;1.17;;;9.40;99.90;;;;;;6160406;23;20147;-74
2024/04/04 00:36:47;;;;;;;3.20;1.40;;;9.40;99.90;;;;;;6186601;23;20547;-73
2024/04/04 00:39:14;;;;;;;1.77;1.03;;;9.40;99.90;;;;;;6187120;23;20150;-74
2024/04/04 00:41:40;;;;;;;3.77;1.10;;;9.50;99.90;;;;;;6187480;23;20218;-76
2024/04/04 00:44:06;;;;;;;1.90;0.90;;;9.50;99.90;;;;;;6188310;23;20441;-75
2024/04/04 00:46:32;;;;;;;1.20;0.80;;;9.50;99.90;;;;;;6187384;23;20393;-73
2024/04/04 00:49:00;;;;;;;2.20;0.90;;;9.50;99.90;;;;;;6186604;23;20146;-74
2024/04/04 00:51:26;;;;;;;3.27;1.43;;;9.50;99.90;;;;;;6186386;23;20378;-74
2024/04/04 00:53:53;;;;;;;1.83;1.10;;;9.60;99.90;;;;;;6190117;23;20444;-74
2024/04/04 00:56:19;;;;;;;1.77;0.97;;;9.60;99.90;;;;;;6184908;23;20816;-74
2024/04/04 00:58:45;;;;;;;7.93;1.37;;;9.70;99.90;;;;;;6186603;23;20767;-74
2024/04/04 01:01:13;;;;;;;2.90;1.00;;;9.70;99.90;;;;;;6187119;23;20767;-74
2024/04/04 01:03:39;;;;;;;2.43;1.03;;;9.80;99.90;;;;;;6187114;23;20370;-75
2024/04/04 01:06:05;;;;;;;2.37;1.00;;;9.80;99.90;;;;;;6184116;23;20426;-74
2024/04/04 01:08:32;;;;;;;5.60;1.10;;;9.80;99.90;;;;;;6186531;23;20408;-74
2024/04/04 01:10:58;;;;;;;2.50;0.97;;;9.90;99.90;;;;;;6160344;23;20169;-74
2024/04/04 01:13:23;;;;;;;1.87;0.90;;;9.90;99.90;;;;;;6160451;23;20378;-74
2024/04/04 01:15:49;;;;;;;1.37;0.90;;;9.90;99.90;;;;;;6160585;23;20459;-75
2024/04/04 01:18:14;;;;;;;2.17;1.00;;;9.90;99.90;;;;;;6160780;23;20150;-74
2024/04/04 01:20:40;;;;;;;2.03;0.90;;;9.90;99.90;;;;;;6185867;23;20396;-74
2024/04/04 01:23:05;;;;;;;1.90;0.83;;;10.00;99.90;;;;;;6185758;23;20145;-74
2024/04/04 01:25:31;;;;;;;3.20;1.03;;;10.00;99.90;;;;;;6186357;23;20402;-74
2024/04/04 01:27:58;;;;;;;2.53;1.07;;;10.00;99.90;;;;;;6186148;23;20162;-74
2024/04/04 01:30:24;;;;;;;3.97;1.70;;;10.00;99.90;;;;;;6186392;23;20165;-75
2024/04/04 01:32:49;;;;;;;3.23;1.00;;;10.10;99.90;;;;;;6186128;23;20361;-74
2024/04/04 01:35:16;;;;;;;4.90;1.00;;;10.10;99.90;;;;;;6190055;23;20139;-73
2024/04/04 01:37:42;;;;;;;2.47;1.17;;;10.10;99.90;;;;;;6194221;23;20167;-74
2024/04/04 01:40:10;;;;;;;1.80;0.90;;;10.10;99.90;;;;;;6144909;23;20390;-73
2024/04/04 01:42:36;;;;;;;4.13;1.27;;;10.10;99.90;;;;;;6193515;23;20162;-74
2024/04/04 01:45:02;;;;;;;1.87;0.80;;;10.10;99.90;;;;;;6194748;23;20562;-76
2024/04/04 01:47:28;;;;;;;2.63;1.00;;;10.20;99.90;;;;;;6168717;23;20172;-74
2024/04/04 01:49:55;;;;;;;3.03;0.90;;;10.20;99.90;;;;;;6191507;23;20359;-75
2024/04/04 01:52:20;;;;;;;2.57;0.90;;;10.20;99.90;;;;;;6194614;23;20142;-75
2024/04/04 01:54:46;;;;;;;2.10;0.70;;;10.20;99.90;;;;;;6194956;23;20378;-74
2024/04/04 01:57:12;;;;;;;2.17;0.90;;;10.20;99.90;;;;;;6194182;23;20166;-75
2024/04/04 01:59:37;;;;;;;4.40;1.10;;;10.10;99.90;;;;;;6166673;23;20173;-73
2024/04/04 02:02:03;;;;;;;1.53;1.00;;;10.10;99.90;;;;;;6168350;23;20147;-74
2024/04/04 02:04:29;;;;;;;3.07;0.87;;;10.10;99.90;;;;;;6162486;23;20265;-73
2024/04/04 02:06:55;;;;;;;1.83;0.97;;;10.00;99.90;;;;;;6164614;23;20178;-74
2024/04/04 02:09:21;;;;;;;2.07;1.40;;;10.00;99.90;;;;;;6164901;23;20613;-77
2024/04/04 02:11:47;;;;;;;1.17;0.83;;;10.10;99.90;;;;;;6141102;23;20162;-76
2024/04/04 02:14:12;;;;;;;2.13;0.90;;;10.10;99.90;;;;;;6118652;23;20231;-76
2024/04/04 02:16:39;;;;;;;3.33;0.90;;;10.20;99.90;;;;;;6143157;23;20396;-77
2024/04/04 02:19:06;;;;;;;2.20;0.90;;;10.20;99.90;;;;;;6143130;23;20154;-75
2024/04/04 02:21:32;;;;;;;3.30;0.80;;;10.30;99.90;;;;;;6143244;23;20395;-75
2024/04/04 02:23:58;;;;;;;3.20;0.83;;;10.30;99.90;;;;;;6166630;23;20140;-75
2024/04/04 02:26:24;;;;;;;2.00;1.03;;;10.40;99.90;;;;;;6166722;23;20195;-74
2024/04/04 02:28:49;;;;;;;2.67;1.40;;;10.40;99.90;;;;;;6169190;23;20368;-76
2024/04/04 02:31:15;;;;;;;2.33;1.30;;;10.40;99.90;;;;;;6170903;23;20560;-74
2024/04/04 02:33:40;;;;;;;4.10;1.47;;;10.50;99.90;;;;;;6171252;23;20135;-75
2024/04/04 02:36:06;;;;;;;1.73;1.00;;;10.50;99.90;;;;;;6145184;23;20183;-74
2024/04/04 02:38:32;;;;;;;2.27;1.20;;;10.50;99.90;;;;;;6171461;23;20210;-75
2024/04/04 02:40:58;;;;;;;2.13;1.00;;;10.50;99.90;;;;;;6147371;23;20366;-73
2024/04/04 02:43:24;;;;;;;1.90;0.90;;;10.60;99.90;;;;;;6146805;23;20143;-74
2024/04/04 02:46:04;;;;;;;1.90;1.00;;;10.60;99.90;;;;;;6141631;23;20412;-75
2024/04/04 02:48:30;;;;;;;2.20;1.07;;;10.60;99.90;;;;;;6167521;23;20751;-74
2024/04/04 02:50:57;;;;;;;1.63;0.80;;;10.60;99.90;;;;;;6140818;23;20379;-74
2024/04/04 02:53:23;;;;;;;3.27;1.00;;;10.60;99.90;;;;;;6167100;23;20366;-76
2024/04/04 02:55:57;;;;;;;3.70;0.90;;;10.60;99.90;;;;;;6142060;23;20420;-74
2024/04/04 02:58:23;;;;;;;1.73;1.10;;;10.60;99.90;;;;;;6166727;23;20433;-74
2024/04/04 03:00:53;;;;;;;2.93;1.03;;;10.50;99.90;;;;;;6161027;23;20497;-75
2024/04/04 03:03:19;;;;;;;1.80;1.47;;;10.50;99.90;;;;;;6158742;23;20355;-75
2024/04/04 03:05:45;;;;;;;1.97;1.23;;;10.40;99.90;;;;;;6177456;23;20437;-73
2024/04/04 03:08:13;;;;;;;2.13;1.10;;;10.30;99.90;;;;;;6188004;23;20782;-74
2024/04/04 03:10:39;;;;;;;2.40;1.20;;;10.30;99.90;;;;;;6187669;23;20389;-75
2024/04/04 03:13:04;;;;;;;1.70;1.00;;;10.20;99.90;;;;;;6187191;23;20366;-74
2024/04/04 03:15:31;;;;;;;1.83;1.23;;;10.20;99.90;;;;;;6139550;23;20465;-74
2024/04/04 03:17:57;;;;;;;2.40;1.17;;;10.20;99.90;;;;;;6188039;23;20237;-75
2024/04/04 03:20:24;;;;;;;2.33;1.30;;;10.20;99.90;;;;;;6186554;23;20382;-77
2024/04/04 03:22:49;;;;;;;3.13;1.53;;;10.20;99.90;;;;;;6162127;23;20393;-74
2024/04/04 03:25:15;;;;;;;2.50;1.07;;;10.20;99.90;;;;;;6187082;23;20425;-74
2024/04/04 03:27:41;;;;;;;1.90;1.30;;;10.20;99.90;;;;;;6161986;23;20235;-72
2024/04/04 03:30:07;;;;;;;1.33;1.23;;;10.30;99.90;;;;;;6188358;23;20135;-76
2024/04/04 03:32:33;;;;;;;1.63;1.00;;;10.30;99.90;;;;;;6186192;23;20177;-74
2024/04/04 03:34:59;;;;;;;2.47;1.20;;;10.30;99.90;;;;;;6186954;23;20370;-74
2024/04/04 03:37:25;;;;;;;2.50;1.00;;;10.30;99.90;;;;;;6187366;23;20378;-74
2024/04/04 03:39:52;;;;;;;1.93;1.23;;;10.30;99.90;;;;;;6187662;23;20174;-75
2024/04/04 03:42:18;;;;;;;1.03;0.90;;;10.40;99.90;;;;;;6188221;23;20782;-74
2024/04/04 03:44:44;;;;;;;3.80;1.13;;;10.40;99.90;;;;;;6187397;23;20484;-74
2024/04/04 03:47:09;;;;;;;1.40;0.90;;;10.50;99.90;;;;;;6187690;23;20162;-74
2024/04/04 03:49:35;;;;;;;2.60;1.60;;;10.50;99.90;;;;;;6161103;23;20147;-75
2024/04/04 03:52:00;;;;;;;3.50;1.87;;;10.50;99.90;;;;;;6187373;23;20160;-75
2024/04/04 03:54:26;;;;;;;3.47;1.50;;;10.60;99.90;;;;;;6160478;23;20235;-74
2024/04/04 03:56:52;;;;;;;3.27;1.40;;;10.70;99.90;;;;;;6189760;23;20247;-73
2024/04/04 03:59:18;;;;;;;2.43;1.40;;;10.70;99.90;;;;;;6165721;23;20429;-74
2024/04/04 04:01:43;;;;;;;4.53;1.37;;;10.80;99.90;;;;;;6162808;23;20186;-74
2024/04/04 04:04:10;;;;;;;1.93;1.30;;;10.80;99.90;;;;;;6190247;23;20195;-74
2024/04/04 04:06:36;;;;;;;1.60;1.03;;;10.90;99.90;;;;;;6194908;23;20468;-75
2024/04/04 04:09:02;;;;;;;3.97;1.50;;;10.90;99.90;;;;;;6139500;23;20386;-75
2024/04/04 04:11:28;;;;;;;4.50;2.53;;;10.90;99.90;;;;;;6191374;23;20140;-75
2024/04/04 04:13:53;;;;;;;2.23;1.47;;;10.90;99.90;;;;;;6179961;23;20363;-76
2024/04/04 04:16:19;;;;;;;2.40;1.57;;;10.90;99.90;;;;;;6196086;23;20180;-74
2024/04/04 04:18:45;;;;;;;2.47;1.50;;;10.90;99.90;;;;;;6163395;23;20169;-75
2024/04/04 04:21:24;;;;;;;3.90;1.70;;;11.00;99.90;;;;;;6191115;23;20194;-75
2024/04/04 04:23:51;;;;;;;1.93;1.30;;;11.00;99.90;;;;;;6188556;23;20194;-74
2024/04/04 04:26:17;;;;;;;2.50;1.13;;;11.00;99.90;;;;;;6190364;23;20470;-75
2024/04/04 04:28:44;;;;;;;1.30;0.83;;;11.00;99.90;;;;;;6193279;23;20407;-76
2024/04/04 04:31:21;;;;;;;1.80;1.10;;;11.10;99.90;;;;;;6192477;23;20372;-74
2024/04/04 04:33:47;;;;;;;1.10;0.80;;;11.10;99.90;;;;;;6197880;23;20431;-76
2024/04/04 04:36:13;;;;;;;1.83;0.90;;;11.20;99.90;;;;;;6173611;23;20412;-77
2024/04/04 04:38:39;;;;;;;1.90;1.20;;;11.20;99.90;;;;;;6171180;23;20364;-75
2024/04/04 04:41:05;;;;;;;1.10;0.80;;;11.30;99.90;;;;;;6196005;23;20152;-75
2024/04/04 04:43:32;;;;;;;1.80;0.80;;;11.30;99.90;;;;;;6171769;23;20162;-77
2024/04/04 04:45:57;;;;;;;1.60;0.80;;;11.40;99.90;;;;;;6196857;23;20182;-75
2024/04/04 04:48:24;;;;;;;3.07;1.00;;;11.40;99.90;;;;;;6171749;23;20363;-75
2024/04/04 04:50:50;;;;;;;2.20;0.97;;;11.40;99.90;;;;;;6197768;23;20397;-75
2024/04/04 04:53:15;;;;;;;3.13;1.10;;;11.40;99.90;;;;;;6170933;23;20132;-75
2024/04/04 04:55:41;;;;;;;2.10;0.90;;;11.40;99.90;;;;;;6172325;23;20158;-74
2024/04/04 04:58:07;;;;;;;1.60;1.00;;;11.50;99.90;;;;;;6173070;23;20202;-76
2024/04/04 05:00:32;;;;;;;4.10;1.67;;;11.50;99.90;;;;;;6171211;23;20152;-76
2024/04/04 05:02:58;;;;;;;2.10;0.90;;;11.60;99.90;;;;;;6194766;23;20141;-75
2024/04/04 05:05:23;;;;;;;3.43;1.50;;;11.60;99.90;;;;;;6200692;23;20219;-77
2024/04/04 05:07:51;;;;;;;2.13;1.00;;;11.60;99.90;;;;;;6176747;23;20545;-76
2024/04/04 05:10:17;;;;;;;2.40;1.10;;;11.70;99.90;;;;;;6172793;23;20360;-75
2024/04/04 05:12:42;;;;;;;2.03;0.80;;;11.70;99.90;;;;;;6197854;23;20428;-74
2024/04/04 05:15:08;;;;;;;1.80;0.80;;;11.70;99.90;;;;;;6174894;23;20212;-75
2024/04/04 05:17:34;;;;;;;1.40;0.73;;;11.70;99.90;;;;;;6150921;23;20234;-76
2024/04/04 05:20:00;;;;;;;1.60;0.80;;;11.80;99.90;;;;;;6171928;23;20670;-76
2024/04/04 05:22:27;;;;;;;2.00;0.77;;;11.80;99.90;;;;;;6173544;23;20147;-78
2024/04/04 05:24:53;;;;;;;1.37;0.80;;;11.90;99.90;;;;;;6149918;23;20422;-75
2024/04/04 05:27:19;;;;;;;2.03;0.70;;;11.90;99.90;;;;;;6175026;23;20629;-76
2024/04/04 05:29:45;;;;;;;2.07;0.90;;;11.90;99.90;;;;;;6197929;23;20380;-74
2024/04/04 05:32:10;;;;;;;1.47;0.70;;;11.90;99.90;;;;;;6148923;23;20139;-76
2024/04/04 05:34:36;;;;;;;2.47;1.10;;;11.80;99.90;;;;;;6173040;23;20152;-75
2024/04/04 05:37:02;;;;;;;1.30;0.90;;;11.80;99.90;;;;;;6197833;23;20166;-76
2024/04/04 05:39:28;;;;;;;2.00;0.90;;;11.70;99.90;;;;;;6173657;23;20156;-76
2024/04/04 05:41:54;;;;;;;3.50;1.27;;;11.70;99.90;;;;;;6175536;23;20371;-77
2024/04/04 05:44:20;;;;;;;1.60;0.93;;;11.60;99.90;;;;;;6200366;23;20432;-76
2024/04/04 05:46:47;;;;;;;3.00;1.10;;;11.60;99.90;;;;;;6198098;23;20583;-77
2024/04/04 05:49:12;;;;;;;1.50;1.07;;;11.60;99.90;;;;;;6197482;23;20395;-75
2024/04/04 05:51:38;;;;;;;4.67;0.97;;;11.60;99.90;;;;;;6174133;23;20760;-75
2024/04/04 05:54:04;;;;;;;2.03;1.00;;;11.50;99.90;;;;;;6196552;23;20226;-77
2024/04/04 05:56:30;;;;;;;4.60;1.10;;;11.60;99.90;;;;;;6175488;23;20433;-77
2024/04/04 05:58:56;;;;;;;1.17;0.70;;;11.60;99.90;;;;;;6175251;23;20430;-76
2024/04/04 06:01:22;;;;;;;1.17;0.90;;;11.60;99.90;;;;;;6150002;23;20147;-76
2024/04/04 06:03:48;;;;;;;1.10;1.00;;;11.60;99.90;;;;;;6198803;23;20362;-76
2024/04/04 06:06:15;;;;;;;1.80;0.90;;;11.60;99.90;;;;;;6176478;23;20437;-76
2024/04/04 06:08:41;;;;;;;2.33;0.97;;;11.60;99.90;;;;;;6149460;23;20370;-76
2024/04/04 06:11:06;;;;;;;1.23;0.70;;;11.60;99.90;;;;;;6146605;23;20146;-76
2024/04/04 06:13:32;;;;;;;2.77;1.00;;;11.60;99.90;;;;;;6175678;23;20153;-76
2024/04/04 06:16:02;;;;;;;1.97;0.93;;;11.60;99.90;;;;;;6174163;23;20234;-76
2024/04/04 06:18:28;;;;;;;1.97;0.90;;;11.60;99.90;;;;;;6202584;23;20191;-78
2024/04/04 06:20:54;;;;;;;1.43;0.80;;;11.50;99.90;;;;;;6175745;23;20384;-80
2024/04/04 06:23:20;;;;;;;2.43;1.93;;;11.60;99.90;;;;;;6150356;23;20455;-76
2024/04/04 06:25:45;;;;;;;2.00;1.23;;;11.60;99.90;;;;;;6174532;23;20421;-76
2024/04/04 06:28:11;;;;;;;1.90;1.20;;;11.50;99.90;;;;;;6173103;23;20452;-76
2024/04/04 06:30:38;;;;;;;2.63;1.00;;;11.60;99.90;;;;;;6199602;23;20136;-76
2024/04/04 06:33:04;;;;;;;1.20;0.97;;;11.60;99.90;;;;;;6176305;23;20383;-75
2024/04/04 06:35:29;;;;;;;1.80;1.10;;;11.50;99.90;;;;;;6152266;23;20155;-78
2024/04/04 06:37:56;;;;;;;3.57;1.07;;;11.50;99.90;;;;;;6175148;23;20509;-77
2024/04/04 06:40:21;;;;;;;3.87;1.23;;;11.50;99.90;;;;;;6201196;23;20179;-77
2024/04/04 06:42:47;;;;;;;1.40;0.90;;;11.50;99.90;;;;;;6176344;23;20380;-78
2024/04/04 06:45:13;;;;;;;4.93;1.63;;;11.50;99.90;;;;;;6175572;23;20175;-80
2024/04/04 06:47:53;;;;;;;2.20;1.00;;;11.50;99.90;;;;;;6204301;23;20195;-77
2024/04/04 06:50:19;;;;;;;2.30;1.33;;;11.50;99.90;;;;;;6177123;23;20197;-77
2024/04/04 06:52:45;;;;;;;4.53;1.27;;;11.50;99.90;;;;;;6202071;23;20366;-77
2024/04/04 06:55:11;;;;;;;1.93;1.00;;;11.50;99.90;;;;;;6207803;23;20382;-78
2024/04/04 06:57:36;;;;;;;1.43;0.90;;;11.50;99.90;;;;;;6179860;23;20175;-79
2024/04/04 07:00:02;;;;;;;1.93;1.10;;;11.50;99.90;;;;;;6178469;23;20148;-79
2024/04/04 07:02:28;;;;;;;2.00;1.30;;;11.50;99.90;;;;;;6178233;23;20137;-81
2024/04/04 07:04:55;;;;;;;2.07;1.27;;;11.50;99.90;;;;;;6149322;23;20440;-79
2024/04/04 07:07:20;;;;;;;2.50;1.27;;;11.60;99.90;;;;;;6152002;23;20423;-78
2024/04/04 07:09:46;;;;;;;2.57;1.93;;;11.60;99.90;;;;;;6148477;23;20152;-77
2024/04/04 07:12:13;;;;;;;2.00;1.40;;;11.60;99.90;;;;;;6147803;23;20151;-77
2024/04/04 07:14:42;;;;;;;5.33;1.10;;;11.60;99.90;;;;;;6147971;23;20156;-79
2024/04/04 07:17:08;;;;;;;2.00;1.27;;;11.60;99.90;;;;;;6112568;23;20671;-77
2024/04/04 07:19:34;;;;;;;1.20;0.83;;;11.60;99.90;;;;;;6110393;23;20369;-79
2024/04/04 07:21:59;;;;;;;1.90;1.07;;;11.60;99.90;;;;;;6114926;23;20152;-78
2024/04/04 07:24:25;;;;;;;1.90;1.00;;;11.60;99.90;;;;;;6109774;23;20181;-78
2024/04/04 07:26:50;;;;;;;2.13;1.30;;;11.70;99.90;;;;;;6112289;23;20204;-76
2024/04/04 07:29:16;;;;;;;2.37;1.40;;;11.70;99.90;;;;;;6065639;23;20145;-80
2024/04/04 07:31:42;;;;;;;4.27;1.40;;;11.70;99.90;;;;;;6092215;23;20176;-77
2024/04/04 07:34:09;;;;;;;3.27;1.77;;;11.70;99.90;;;;;;6066581;23;20154;-78
2024/04/04 07:36:34;;;;;;;2.67;1.27;;;11.70;99.90;;;;;;6089615;23;20221;-79
2024/04/04 07:39:01;;;;;;;1.60;1.20;;;11.70;99.90;;;;;;6088415;23;20384;-79
2024/04/04 07:41:27;;;;;;;3.27;1.40;;;11.70;99.90;;;;;;6065069;23;20154;-77
2024/04/04 07:43:53;;;;;;;4.50;2.00;;;11.70;99.90;;;;;;6089345;23;20386;-78
2024/04/04 07:46:18;;;;;;;5.47;1.63;;;11.70;99.90;;;;;;6091537;23;20179;-78
2024/04/04 07:48:44;;;;;;;3.80;1.20;;;11.70;99.90;;;;;;6162848;23;20151;-77
2024/04/04 07:51:13;;;;;;;2.77;1.23;;;11.80;99.90;;;;;;6179000;23;20217;-77
2024/04/04 07:53:39;;;;;;;4.67;1.30;;;11.80;99.90;;;;;;6126595;23;20379;-79
2024/04/04 07:56:05;;;;;;;5.10;1.20;;;11.80;99.90;;;;;;6126680;23;20791;-77
2024/04/04 07:58:31;;;;;;;2.53;1.40;;;11.80;99.90;;;;;;6151604;23;20396;-78
2024/04/04 08:00:57;;;;;;;2.30;1.17;;;11.80;99.90;;;;;;6149633;23;20177;-77
2024/04/04 08:03:23;;;;;;;3.87;1.40;;;11.80;99.90;;;;;;6150989;23;20401;-77
2024/04/04 08:05:54;;;;;;;2.00;1.07;;;11.80;99.90;;;;;;6168531;23;20178;-78
2024/04/04 08:08:23;;;;;;;2.00;1.37;;;11.90;99.90;;;;;;6151652;23;20410;-79
2024/04/04 08:10:49;;;;;;;2.37;1.30;;;11.90;99.90;;;;;;6150763;23;20374;-77
2024/04/04 08:13:17;;;;;;;3.50;1.50;;;11.90;99.90;;;;;;6153959;23;20363;-78
2024/04/04 08:15:43;;;;;;;5.60;2.13;;;11.80;99.90;;;;;;6151034;23;20447;-76
2024/04/04 08:18:09;;;;;;;4.93;2.73;;;11.70;99.90;;;;;;6119061;23;20822;-77
2024/04/04 08:20:35;;;;;;;2.50;1.60;;;11.70;99.90;;;;;;6121111;23;20486;-76
2024/04/04 08:23:01;;;;;;;3.00;1.20;;;11.70;99.90;;;;;;6120142;23;20394;-77
2024/04/04 08:25:31;;;;;;;1.53;1.00;;;11.60;99.90;;;;;;6122309;23;20223;-79
2024/04/04 08:27:57;;;;;;;1.73;0.87;;;11.40;99.90;;;;;;6172222;23;20458;-78
2024/04/04 08:30:23;;;;;;;1.90;0.90;;;11.40;99.90;;;;;;6210442;23;20401;-77
2024/04/04 08:32:50;;;;;;;1.30;0.80;;;11.30;99.90;;;;;;6210715;23;20162;-78
2024/04/04 08:35:16;;;;;;;1.07;0.70;;;11.30;99.90;;;;;;6211752;23;20146;-78
2024/04/04 08:37:48;;;;;;;1.87;0.90;;;11.20;99.90;;;;;;6206412;23;20512;-79
2024/04/04 08:40:14;;;;;;;1.10;0.70;;;11.20;99.90;;;;;;6158442;23;20381;-78
2024/04/04 08:42:41;;;;;;;1.93;0.80;;;11.20;99.90;;;;;;6181425;23;20403;-80
2024/04/04 08:45:11;;;;;;;1.07;0.70;;;11.20;99.90;;;;;;6181908;23;20461;-79
2024/04/04 08:47:38;;;;;;;2.30;0.80;;;11.20;99.90;;;;;;6153903;23;20399;-79
2024/04/04 08:50:07;;;;;;;1.00;0.63;;;11.20;99.90;;;;;;6181168;23;20374;-80
2024/04/04 08:52:34;;;;;;;0.87;0.60;;;11.30;99.90;;;;;;6207499;23;20434;-79
2024/04/04 08:55:00;;;;;;;1.30;0.70;;;11.40;99.90;;;;;;6181416;23;20370;-78
2024/04/04 08:57:26;;;;;;;1.00;0.60;;;11.50;99.90;;;;;;6179821;23;20418;-78
2024/04/04 08:59:58;;;;;;;1.57;0.80;;;11.60;99.90;;;;;;6206995;23;20377;-82
2024/04/04 09:02:28;;;;;;;1.40;0.77;;;11.70;99.90;;;;;;6183070;23;20161;-79
2024/04/04 09:05:07;;;;;;;1.40;0.80;;;11.70;99.90;;;;;;6157956;23;20414;-78
2024/04/04 09:07:39;;;;;;;1.03;0.67;;;11.70;99.90;;;;;;6178850;23;20395;-80
2024/04/04 09:10:06;;;;;;;2.07;0.80;;;11.70;99.90;;;;;;6179514;23;20378;-77
2024/04/04 09:12:32;;;;;;;1.20;0.80;;;11.70;99.90;;;;;;6176165;23;20381;-79
2024/04/04 09:14:59;;;;;;;1.00;0.70;;;11.70;99.90;;;;;;6145060;23;20730;-77
2024/04/04 09:17:26;;;;;;;1.53;0.80;;;11.80;99.90;;;;;;6182646;23;20453;-80
2024/04/04 09:19:56;;;;;;;1.27;0.80;;;11.90;99.90;;;;;;6206479;23;20379;-78
2024/04/04 09:22:25;;;;;;;2.30;0.87;;;11.80;99.90;;;;;;6181949;23;20382;-77
2024/04/04 09:25:15;;;;;;;1.43;1.00;;;11.70;99.90;;;;;;6133492;23;20419;-79
2024/04/04 09:27:41;;;;;;;3.00;1.27;;;11.60;99.90;;;;;;6208458;23;20424;-80
2024/04/04 09:30:12;;;;;;;1.60;0.90;;;11.70;99.90;;;;;;6186219;23;20419;-79
2024/04/04 09:32:40;;;;;;;1.30;0.80;;;11.80;99.90;;;;;;6211508;23;20436;-77
2024/04/04 09:35:09;;;;;;;1.67;0.90;;;11.90;99.90;;;;;;6182433;23;20357;-78
2024/04/04 09:37:36;;;;;;;1.40;0.70;;;12.00;99.90;;;;;;6097898;23;20408;-77
2024/04/04 09:40:06;;;;;;;1.00;0.70;;;12.10;99.90;;;;;;6099598;23;20446;-80
2024/04/04 09:42:41;;;;;;;1.10;0.70;;;12.40;99.90;;;;;;6100615;23;20381;-78
2024/04/04 09:45:14;;;;;;;0.97;0.70;;;12.60;99.90;;;;;;6094812;23;20431;-78
2024/04/04 09:47:44;;;;;;;1.30;0.80;;;12.60;99.90;;;;;;6098180;23;20389;-80
2024/04/04 09:50:23;;;;;;;2.17;1.10;;;12.70;99.90;;;;;;6122553;23;20442;-79
2024/04/04 09:53:17;;;;;;;1.00;0.70;;;12.70;99.90;;;;;;6101929;23;20391;-81
2024/04/04 09:55:52;;;;;;;1.27;0.70;;;12.70;99.90;;;;;;6148992;23;20398;-80
2024/04/04 09:58:22;;;;;;;1.43;1.03;;;12.80;99.90;;;;;;6149629;23;20376;-78
2024/04/04 10:00:48;;;;;;;1.50;0.87;;;12.80;99.90;;;;;;6124757;23;20386;-79
2024/04/04 10:03:13;;;;;;;1.60;0.80;;;12.80;99.90;;;;;;6125269;23;20462;-80
2024/04/04 10:05:42;;;;;;;4.37;1.03;;;12.80;99.90;;;;;;6148032;23;20183;-80
2024/04/04 10:08:11;;;;;;;1.13;0.70;;;12.90;99.90;;;;;;6148735;23;20160;-81
2024/04/04 10:10:40;;;;;;;1.40;0.93;;;12.90;99.90;;;;;;6123652;23;20383;-79
2024/04/04 10:13:12;;;;;;;1.65;1.10;;;12.80;99.90;;;;;;6122304;23;20413;-80
2024/04/04 10:15:51;;;;;;;3.50;1.00;;;12.60;99.90;;;;;;6143547;23;20168;-78
2024/04/04 10:18:22;;;;;;;1.57;1.20;;;12.50;99.90;;;;;;6182787;23;20616;-79
2024/04/04 10:21:02;;;;;;;3.27;1.83;;;12.60;99.90;;;;;;6210955;23;20359;-79
2024/04/04 10:23:28;;;;;;;6.60;1.30;;;12.60;99.90;;;;;;6209326;23;20342;-79
2024/04/04 10:26:07;;;;;;;2.93;1.73;;;12.80;99.90;;;;;;6152736;23;20481;-79
2024/04/04 10:28:35;;;;;;;2.40;1.00;;;12.80;99.90;;;;;;6153077;23;20486;-80
2024/04/04 10:31:04;;;;;;;3.13;1.83;;;12.60;99.90;;;;;;6129244;23;20388;-80
2024/04/04 10:33:31;;;;;;;5.07;1.40;;;12.70;99.90;;;;;;6130784;23;20138;-80
2024/04/04 10:38:52;;;;;;;4.00;1.40;;;13.00;99.90;;;;;;6205248;23;20190;-81
2024/04/04 10:41:46;;;;;;;3.20;1.60;;;13.40;99.90;;;;;;6166625;23;20362;-80
2024/04/04 10:44:22;;;;;;;1.60;1.10;;;13.80;99.90;;;;;;6115453;23;20397;-81
2024/04/04 10:47:03;;;;;;;3.13;1.53;;;14.20;99.90;;;;;;6127324;23;20453;-82
2024/04/04 10:49:32;;;;;;;3.50;1.50;;;14.50;99.90;;;;;;6154716;23;20391;-79
2024/04/04 10:52:01;;;;;;;4.33;1.63;;;14.60;99.90;;;;;;6184865;23;20369;-79
2024/04/04 10:54:45;;;;;;;3.13;1.23;;;14.90;99.90;;;;;;6159357;23;20384;-79
2024/04/04 10:57:14;;;;;;;3.53;0.90;;;15.30;99.90;;;;;;6207471;23;20395;-79
2024/04/04 10:59:43;;;;;;;3.13;1.03;;;15.40;99.90;;;;;;6183955;23;20382;-78
2024/04/04 11:02:12;;;;;;;1.90;0.70;;;15.60;99.90;;;;;;6184088;23;20884;-79
2024/04/04 11:04:40;;;;;;;4.10;1.43;;;15.50;99.90;;;;;;6210399;23;20409;-78
2024/04/04 11:07:10;;;;;;;1.93;0.80;;;15.60;99.90;;;;;;6158163;23;20390;-80
2024/04/04 11:09:38;;;;;;;1.90;1.00;;;15.70;99.90;;;;;;6105183;23;20370;-79
2024/04/04 11:12:26;;;;;;;3.17;1.50;;;15.90;99.90;;;;;;6155746;23;20969;-81
2024/04/04 11:14:52;;;;;;;3.17;1.30;;;16.00;99.90;;;;;;6155780;23;20386;-79
2024/04/04 11:17:20;;;;;;;1.97;1.27;;;16.00;99.90;;;;;;6155179;23;20404;-78
2024/04/04 11:19:46;;;;;;;1.50;1.07;;;16.00;99.90;;;;;;6132325;23;20378;-79
2024/04/04 11:22:12;;;;;;;1.63;1.17;;;15.90;99.90;;;;;;6129622;23;20391;-76
2024/04/04 11:24:39;;;;;;;4.47;1.27;;;15.80;99.90;;;;;;6131222;23;20518;-78
2024/04/04 11:27:08;;;;;;;2.37;1.20;;;15.70;99.90;;;;;;6106552;23;20422;-80
2024/04/04 11:29:40;;;;;;;3.53;1.87;;;15.60;99.90;;;;;;6155786;23;20369;-78
2024/04/04 11:32:07;;;;;;;2.50;2.00;;;15.50;99.90;;;;;;6132868;23;20384;-79
2024/04/04 11:34:34;;;;;;;3.10;1.63;;;15.40;99.90;;;;;;6154855;23;20391;-79
2024/04/04 11:37:00;;;;;;;2.97;1.70;;;15.40;99.90;;;;;;6124058;23;20419;-80
2024/04/04 11:39:29;;;;;;;7.73;1.70;;;15.40;99.90;;;;;;6123797;23;20422;-77
2024/04/04 11:41:56;;;;;;;2.60;0.83;;;15.20;99.90;;;;;;6100233;23;20396;-80
2024/04/04 11:44:25;;;;;;;2.90;0.97;;;14.20;99.90;;;;;;6126177;23;20207;-79
2024/04/04 11:47:00;;;;;;;3.40;0.87;;;13.30;99.90;;;;;;6121048;23;20425;-81
2024/04/04 11:49:47;;;;;;;3.20;0.90;;;12.50;99.90;;;;;;6162618;23;20474;-79
2024/04/04 11:52:20;;;;;;;1.23;0.90;;;12.00;99.90;;;;;;6187809;23;20406;-80
2024/04/04 11:54:50;;;;;;;1.43;1.00;;;11.60;99.90;;;;;;6162362;23;20402;-79
2024/04/04 12:00:11;;;;;;;3.47;1.00;;;11.30;99.90;;;;;;6201897;22;20469;-81
2024/04/04 12:02:38;;;;;;;1.60;1.00;;;11.20;99.90;;;;;;6158336;23;20368;-79
2024/04/04 12:05:06;;;;;;;1.20;1.00;;;11.20;99.90;;;;;;6183256;23;20543;-79
2024/04/04 12:07:32;;;;;;;3.23;1.50;;;11.20;99.90;;;;;;6182647;23;20400;-78
2024/04/04 12:10:02;;;;;;;3.53;1.10;;;11.20;99.90;;;;;;6183500;23;20365;-78
2024/04/04 12:12:28;;;;;;;2.83;1.37;;;11.30;99.90;;;;;;6130468;23;20157;-79
2024/04/04 12:15:08;;;;;;;1.90;1.00;;;11.30;99.90;;;;;;6186468;23;20376;-79
2024/04/04 12:17:47;;;;;;;3.00;1.07;;;11.30;99.90;;;;;;6187296;23;20454;-79
2024/04/04 12:20:22;;;;;;;3.23;1.17;;;11.20;99.90;;;;;;6184501;23;20361;-80
2024/04/04 12:22:49;;;;;;;2.27;1.47;;;11.00;99.90;;;;;;6185218;23;20360;-79
2024/04/04 12:25:23;;;;;;;4.33;1.50;;;10.90;99.90;;;;;;6158939;23;20414;-79
2024/04/04 12:27:49;;;;;;;1.97;1.20;;;10.90;99.90;;;;;;6185054;23;20411;-80
2024/04/04 12:30:17;;;;;;;2.27;1.30;;;10.80;99.90;;;;;;6120634;23;20384;-78
2024/04/04 12:32:44;;;;;;;4.13;1.50;;;10.80;99.90;;;;;;6096197;23;20678;-80
2024/04/04 12:35:12;;;;;;;2.20;1.13;;;10.80;99.90;;;;;;6072264;23;20391;-79
2024/04/04 12:37:44;;;;;;;2.23;1.27;;;10.80;99.90;;;;;;6073158;23;20438;-78
2024/04/04 12:40:11;;;;;;;3.07;1.17;;;10.90;99.90;;;;;;6097774;23;20414;-80
2024/04/04 12:42:40;;;;;;;4.00;2.20;;;10.90;99.90;;;;;;6098767;23;20355;-78
2024/04/04 12:45:30;;;;;;;2.97;1.20;;;10.90;99.90;;;;;;6122321;23;20455;-80
2024/04/04 12:47:57;;;;;;;13.27;2.70;;;10.80;99.90;;;;;;6071639;23;20402;-81
2024/04/04 12:50:28;;;;;;;5.00;1.80;;;10.80;99.90;;;;;;6034302;23;20397;-80
2024/04/04 12:52:55;;;;;;;5.27;1.43;;;10.90;99.90;;;;;;6061492;23;20384;-79
2024/04/04 12:55:42;;;;;;;4.20;1.50;;;10.90;99.90;;;;;;6040603;23;20452;-79